createdAt,value
2023-04-09T00:01:18.949Z,57.40
2023-04-09T00:03:45.494Z,57.89
2023-04-09T00:06:12.706Z,57.51
2023-04-09T00:08:39.050Z,58.02
2023-04-09T00:11:05.794Z,58.06
2023-04-09T00:13:39.024Z,58.31
2023-04-09T00:16:06.367Z,58.36
2023-04-09T00:18:32.807Z,58.49
2023-04-09T00:20:59.179Z,58.46
2023-04-09T00:23:25.525Z,58.58
2023-04-09T00:25:51.939Z,58.83
2023-04-09T00:28:18.277Z,58.85
2023-04-09T00:30:44.639Z,59.00
2023-04-09T00:33:11.279Z,58.67
2023-04-09T00:35:37.656Z,58.92
2023-04-09T00:38:04.087Z,58.96
2023-04-09T00:40:30.827Z,59.00
2023-04-09T00:42:57.170Z,58.52
2023-04-09T00:45:23.664Z,58.91
2023-04-09T00:47:50.457Z,58.89
2023-04-09T00:50:16.971Z,58.92
2023-04-09T00:52:43.615Z,58.85
2023-04-09T00:55:10.474Z,59.01
2023-04-09T00:57:37.388Z,58.66
2023-04-09T01:00:04.670Z,59.26
2023-04-09T01:02:31.313Z,59.67
2023-04-09T01:04:58.156Z,59.44
2023-04-09T01:07:48.657Z,59.56
2023-04-09T01:10:28.172Z,60.02
2023-04-09T01:13:03.166Z,59.89
2023-04-09T01:15:37.714Z,59.96
2023-04-09T01:18:12.075Z,59.95
2023-04-09T01:20:40.592Z,60.41
2023-04-09T01:23:09.919Z,60.22
2023-04-09T01:26:04.289Z,60.59
2023-04-09T01:28:36.824Z,60.41
2023-04-09T01:31:09.215Z,60.58
2023-04-09T01:33:37.675Z,61.07
2023-04-09T01:36:05.171Z,61.12
2023-04-09T01:38:36.378Z,60.90
2023-04-09T01:41:04.026Z,61.31
2023-04-09T01:43:31.940Z,61.15
2023-04-09T01:46:00.840Z,61.18
2023-04-09T01:48:27.654Z,61.04
2023-04-09T01:50:54.184Z,60.98
2023-04-09T01:53:21.762Z,61.45
2023-04-09T01:55:48.091Z,61.28
2023-04-09T01:58:14.461Z,61.45
2023-04-09T02:00:46.762Z,61.10
2023-04-09T02:03:22.296Z,60.88
2023-04-09T02:06:04.958Z,61.11
2023-04-09T02:08:34.765Z,61.19
2023-04-09T02:11:04.902Z,61.04
2023-04-09T02:13:34.585Z,61.73
2023-04-09T02:16:01.986Z,61.31
2023-04-09T02:18:30.156Z,61.36
2023-04-09T02:20:57.707Z,61.45
2023-04-09T02:23:24.618Z,61.56
2023-04-09T02:25:52.534Z,61.33
2023-04-09T02:28:19.095Z,61.92
2023-04-09T02:30:45.513Z,61.59
2023-04-09T02:33:11.908Z,61.85
2023-04-09T02:35:38.317Z,61.70
2023-04-09T02:38:04.899Z,61.89
2023-04-09T02:40:31.291Z,62.10
2023-04-09T02:42:57.817Z,61.86
2023-04-09T02:45:24.136Z,61.79
2023-04-09T02:47:50.600Z,62.00
2023-04-09T02:50:17.130Z,62.04
2023-04-09T02:52:46.408Z,61.67
2023-04-09T02:55:13.348Z,62.26
2023-04-09T02:57:40.768Z,62.01
2023-04-09T03:00:07.952Z,62.47
2023-04-09T03:02:34.539Z,62.42
2023-04-09T03:05:00.947Z,62.39
2023-04-09T03:07:27.405Z,62.26
2023-04-09T03:09:53.747Z,62.19
2023-04-09T03:12:20.116Z,62.61
2023-04-09T03:14:46.496Z,62.36
2023-04-09T03:17:12.796Z,62.44
2023-04-09T03:19:39.101Z,62.39
2023-04-09T03:22:05.727Z,62.61
2023-04-09T03:24:33.042Z,62.24
2023-04-09T03:26:59.377Z,62.44
2023-04-09T03:29:25.939Z,62.31
2023-04-09T03:31:52.394Z,62.43
2023-04-09T03:34:18.811Z,62.47
2023-04-09T03:36:45.367Z,62.46
2023-04-09T03:39:11.750Z,63.00
2023-04-09T03:41:38.203Z,62.60
2023-04-09T03:44:04.670Z,63.19
2023-04-09T03:46:31.180Z,62.65
2023-04-09T03:48:57.553Z,63.08
2023-04-09T03:51:23.902Z,63.03
2023-04-09T03:53:50.386Z,62.76
2023-04-09T03:56:16.698Z,63.20
2023-04-09T03:58:43.026Z,62.74
2023-04-09T04:01:09.431Z,63.39
2023-04-09T04:03:36.010Z,62.97
2023-04-09T04:06:03.446Z,63.18
2023-04-09T04:08:30.071Z,63.19
2023-04-09T04:10:56.539Z,62.95
2023-04-09T04:13:22.983Z,63.13
2023-04-09T04:15:49.315Z,63.25
2023-04-09T04:18:15.671Z,63.37
2023-04-09T04:20:42.013Z,62.96
2023-04-09T04:23:08.384Z,63.47
2023-04-09T04:25:34.741Z,63.47
2023-04-09T04:28:01.057Z,63.48
2023-04-09T04:30:27.424Z,63.10
2023-04-09T04:32:53.884Z,63.21
2023-04-09T04:35:21.613Z,63.43
2023-04-09T04:37:50.935Z,63.25
2023-04-09T04:40:17.664Z,63.86
2023-04-09T04:42:44.262Z,63.56
2023-04-09T04:45:10.783Z,63.92
2023-04-09T04:47:37.148Z,63.63
2023-04-09T04:50:03.771Z,63.39
2023-04-09T04:52:30.169Z,63.83
2023-04-09T04:54:56.547Z,63.92
2023-04-09T04:57:22.950Z,63.61
2023-04-09T04:59:49.273Z,63.79
2023-04-09T05:02:15.800Z,63.62
2023-04-09T05:04:42.408Z,63.66
2023-04-09T05:07:08.729Z,63.33
2023-04-09T05:09:35.387Z,63.60
2023-04-09T05:12:02.488Z,63.64
2023-04-09T05:14:28.907Z,63.50
2023-04-09T05:16:55.292Z,63.74
2023-04-09T05:19:21.704Z,64.01
2023-04-09T05:21:48.022Z,63.66
2023-04-09T05:24:14.446Z,64.26
2023-04-09T05:26:40.927Z,64.22
2023-04-09T05:29:07.273Z,64.37
2023-04-09T05:31:35.183Z,63.50
2023-04-09T05:34:01.571Z,63.80
2023-04-09T05:36:27.895Z,64.09
2023-04-09T05:38:54.600Z,64.19
2023-04-09T05:41:21.242Z,64.05
2023-04-09T05:43:47.594Z,64.00
2023-04-09T05:46:14.185Z,64.24
2023-04-09T05:48:41.199Z,63.88
2023-04-09T05:51:07.877Z,64.26
2023-04-09T05:53:34.229Z,64.10
2023-04-09T05:56:00.807Z,64.39
2023-04-09T05:58:29.544Z,64.25
2023-04-09T06:00:56.103Z,64.22
2023-04-09T06:03:22.499Z,64.62
2023-04-09T06:05:49.122Z,64.67
2023-04-09T06:08:15.668Z,64.27
2023-04-09T06:10:42.172Z,64.66
2023-04-09T06:13:10.180Z,64.59
2023-04-09T06:15:38.707Z,64.82
2023-04-09T06:18:05.090Z,64.84
2023-04-09T06:20:31.535Z,64.42
2023-04-09T06:22:57.917Z,64.64
2023-04-09T06:25:24.383Z,64.41
2023-04-09T06:27:50.910Z,64.72
2023-04-09T06:30:17.249Z,64.59
2023-04-09T06:32:53.822Z,64.27
2023-04-09T06:35:21.569Z,64.54
2023-04-09T06:37:47.879Z,64.47
2023-04-09T06:40:14.721Z,64.05
2023-04-09T06:42:41.174Z,64.15
2023-04-09T06:45:08.609Z,64.14
2023-04-09T06:47:38.012Z,63.84
2023-04-09T06:50:05.001Z,63.49
2023-04-09T06:52:31.465Z,63.17
2023-04-09T06:54:57.842Z,63.00
2023-04-09T06:57:24.207Z,62.85
2023-04-09T06:59:50.599Z,62.61
2023-04-09T07:02:17.284Z,62.13
2023-04-09T07:04:43.858Z,62.22
2023-04-09T07:07:10.571Z,61.99
2023-04-09T07:09:36.981Z,61.81
2023-04-09T07:12:03.494Z,61.90
2023-04-09T07:14:29.958Z,61.51
2023-04-09T07:16:56.288Z,60.94
2023-04-09T07:19:22.804Z,60.69
2023-04-09T07:21:49.224Z,60.30
2023-04-09T07:24:15.792Z,60.11
2023-04-09T07:26:42.660Z,59.96
2023-04-09T07:29:09.160Z,59.71
2023-04-09T07:31:36.201Z,59.52
2023-04-09T07:34:02.675Z,58.88
2023-04-09T07:36:29.156Z,58.60
2023-04-09T07:38:55.618Z,58.34
2023-04-09T07:41:22.159Z,58.21
2023-04-09T07:43:48.678Z,57.68
2023-04-09T07:46:24.445Z,57.90
2023-04-09T07:48:51.437Z,58.20
2023-04-09T07:51:19.393Z,57.36
2023-04-09T07:53:45.816Z,57.26
2023-04-09T07:56:12.347Z,57.07
2023-04-09T07:58:38.693Z,56.77
2023-04-09T08:01:05.218Z,56.47
2023-04-09T08:03:32.156Z,55.84
2023-04-09T08:05:58.704Z,55.95
2023-04-09T08:08:25.348Z,55.69
2023-04-09T08:10:52.085Z,55.68
2023-04-09T08:13:18.530Z,55.39
2023-04-09T08:15:45.046Z,55.35
2023-04-09T08:18:11.482Z,54.67
2023-04-09T08:20:44.823Z,54.53
2023-04-09T08:23:12.030Z,53.94
2023-04-09T08:25:38.409Z,53.98
2023-04-09T08:28:05.554Z,53.77
2023-04-09T08:30:34.089Z,53.62
2023-04-09T08:33:01.538Z,53.60
2023-04-09T08:35:29.913Z,53.21
2023-04-09T08:37:56.884Z,52.81
2023-04-09T08:40:23.519Z,52.57
2023-04-09T08:42:55.800Z,52.50
2023-04-09T08:45:22.577Z,51.81
2023-04-09T08:47:51.322Z,51.99
2023-04-09T08:50:17.841Z,51.76
2023-04-09T08:52:48.003Z,52.00
2023-04-09T08:55:14.604Z,51.34
2023-04-09T08:57:41.993Z,51.13
2023-04-09T09:00:09.294Z,50.88
2023-04-09T09:02:36.356Z,50.78
2023-04-09T09:05:03.016Z,50.75
2023-04-09T09:07:30.254Z,50.34
2023-04-09T09:09:59.031Z,49.97
2023-04-09T09:12:34.803Z,50.27
2023-04-09T09:15:01.802Z,49.60
2023-04-09T09:17:28.418Z,49.62
2023-04-09T09:19:55.121Z,49.53
2023-04-09T09:22:21.654Z,49.67
2023-04-09T09:24:50.692Z,49.08
2023-04-09T09:27:37.151Z,49.47
2023-04-09T09:30:04.731Z,50.61
2023-04-09T09:32:32.202Z,48.95
2023-04-09T09:35:08.063Z,48.74
2023-04-09T09:37:34.573Z,48.11
2023-04-09T09:40:01.252Z,48.16
2023-04-09T09:42:28.000Z,47.74
2023-04-09T09:44:55.247Z,47.59
2023-04-09T09:47:22.819Z,46.99
2023-04-09T09:49:50.340Z,47.29
2023-04-09T09:52:24.586Z,47.34
2023-04-09T09:54:53.326Z,46.82
2023-04-09T09:57:22.226Z,46.38
2023-04-09T09:59:55.990Z,46.55
2023-04-09T10:02:30.910Z,46.22
2023-04-09T10:05:00.905Z,46.01
2023-04-09T10:07:28.497Z,45.78
2023-04-09T10:09:56.846Z,45.52
2023-04-09T10:12:25.084Z,45.02
2023-04-09T10:14:53.043Z,45.20
2023-04-09T10:17:20.036Z,45.08
2023-04-09T10:20:02.056Z,45.78
2023-04-09T10:22:32.042Z,45.21
2023-04-09T10:24:59.805Z,44.04
2023-04-09T10:27:29.911Z,43.84
2023-04-09T10:29:56.488Z,43.58
2023-04-09T10:32:26.695Z,44.07
2023-04-09T10:34:57.256Z,44.08
2023-04-09T10:37:25.827Z,43.19
2023-04-09T10:39:52.827Z,42.93
2023-04-09T10:42:24.841Z,42.81
2023-04-09T10:45:04.535Z,43.48
2023-04-09T10:47:36.301Z,43.14
2023-04-09T10:50:21.152Z,43.27
2023-04-09T10:52:52.806Z,42.75
2023-04-09T10:55:50.331Z,43.33
2023-04-09T10:58:17.341Z,41.93
2023-04-09T11:00:48.640Z,41.89
2023-04-09T11:03:24.356Z,41.71
2023-04-09T11:06:06.197Z,43.67
2023-04-09T11:08:33.696Z,41.00
2023-04-09T11:11:01.925Z,40.48
2023-04-09T11:13:30.212Z,40.05
2023-04-09T11:15:57.800Z,40.20
2023-04-09T11:18:26.734Z,40.28
2023-04-09T11:20:57.494Z,40.72
2023-04-09T11:23:24.996Z,40.01
2023-04-09T11:25:53.008Z,39.87
2023-04-09T11:28:20.563Z,39.91
2023-04-09T11:30:47.388Z,39.71
2023-04-09T11:33:14.342Z,39.55
2023-04-09T11:35:40.799Z,38.63
2023-04-09T11:38:08.938Z,38.42
2023-04-09T11:40:36.189Z,37.85
2023-04-09T11:43:03.167Z,37.54
2023-04-09T11:45:32.034Z,38.27
2023-04-09T11:47:59.260Z,37.93
2023-04-09T11:50:26.246Z,37.49
2023-04-09T11:52:52.705Z,37.20
2023-04-09T11:55:27.851Z,37.58
2023-04-09T11:57:57.825Z,37.45
2023-04-09T12:00:24.715Z,36.85
2023-04-09T12:03:02.864Z,37.00
2023-04-09T12:05:31.976Z,36.84
2023-04-09T12:08:02.201Z,36.64
2023-04-09T12:10:29.988Z,36.56
2023-04-09T12:13:06.647Z,37.07
2023-04-09T12:15:35.005Z,36.65
2023-04-09T12:18:02.138Z,36.41
2023-04-09T12:20:31.586Z,35.91
2023-04-09T12:23:00.294Z,35.75
2023-04-09T12:25:27.726Z,35.66
2023-04-09T12:27:56.457Z,35.61
2023-04-09T12:30:23.672Z,35.52
2023-04-09T12:32:50.630Z,35.54
2023-04-09T12:35:17.038Z,35.64
2023-04-09T12:37:44.280Z,35.24
2023-04-09T12:40:13.903Z,35.56
2023-04-09T12:42:41.676Z,35.57
2023-04-09T12:45:10.259Z,36.20
2023-04-09T12:47:37.061Z,35.72
2023-04-09T12:50:04.640Z,35.25
2023-04-09T12:52:31.178Z,35.37
2023-04-09T12:54:57.821Z,35.02
2023-04-09T12:57:24.456Z,35.08
2023-04-09T12:59:50.917Z,34.65
2023-04-09T13:02:17.608Z,34.70
2023-04-09T13:04:44.579Z,35.19
2023-04-09T13:07:12.899Z,34.68
2023-04-09T13:09:39.324Z,34.83
2023-04-09T13:12:06.090Z,34.62
2023-04-09T13:14:32.582Z,34.28
2023-04-09T13:16:59.257Z,34.13
2023-04-09T13:19:25.982Z,34.25
2023-04-09T13:21:52.694Z,34.59
2023-04-09T13:24:19.131Z,34.26
2023-04-09T13:26:45.575Z,34.68
2023-04-09T13:29:12.113Z,34.55
2023-04-09T13:31:38.508Z,34.13
2023-04-09T13:34:06.423Z,33.95
2023-04-09T13:36:33.074Z,33.66
2023-04-09T13:39:04.335Z,33.25
2023-04-09T13:41:32.677Z,33.86
2023-04-09T13:44:00.201Z,34.21
2023-04-09T13:46:27.823Z,33.77
2023-04-09T13:48:55.203Z,33.85
2023-04-09T13:51:27.141Z,34.29
2023-04-09T13:53:53.537Z,34.05
2023-04-09T13:56:20.556Z,34.12
2023-04-09T13:58:47.441Z,33.88
2023-04-09T14:01:14.510Z,34.08
2023-04-09T14:03:40.887Z,34.26
2023-04-09T14:06:10.543Z,33.96
2023-04-09T14:08:37.186Z,33.93
2023-04-09T14:11:03.743Z,34.04
2023-04-09T14:13:30.404Z,33.81
2023-04-09T14:15:59.159Z,33.79
2023-04-09T14:18:26.795Z,33.74
2023-04-09T14:20:53.222Z,34.35
2023-04-09T14:23:19.707Z,33.88
2023-04-09T14:25:46.045Z,33.82
2023-04-09T14:28:12.462Z,33.88
2023-04-09T14:30:39.013Z,33.28
2023-04-09T14:33:05.413Z,33.68
2023-04-09T14:35:31.896Z,33.29
2023-04-09T14:37:58.412Z,33.45
2023-04-09T14:40:24.827Z,33.00
2023-04-09T14:42:51.252Z,32.88
2023-04-09T14:45:17.934Z,32.91
2023-04-09T14:47:44.343Z,32.67
2023-04-09T14:50:12.870Z,32.54
2023-04-09T14:52:39.470Z,32.71
2023-04-09T14:55:11.925Z,32.85
2023-04-09T14:57:42.062Z,33.40
2023-04-09T15:00:10.356Z,32.56
2023-04-09T15:02:37.156Z,32.63
2023-04-09T15:05:04.561Z,32.38
2023-04-09T15:07:31.502Z,32.18
2023-04-09T15:09:59.798Z,32.26
2023-04-09T15:12:27.834Z,32.13
2023-04-09T15:14:56.524Z,32.42
2023-04-09T15:17:23.693Z,32.13
2023-04-09T15:19:50.721Z,32.18
2023-04-09T15:22:17.136Z,32.20
2023-04-09T15:24:43.684Z,32.04
2023-04-09T15:27:10.304Z,32.28
2023-04-09T15:29:36.755Z,31.90
2023-04-09T15:32:03.347Z,31.93
2023-04-09T15:34:29.909Z,32.15
2023-04-09T15:36:57.182Z,31.61
2023-04-09T15:39:24.741Z,32.02
2023-04-09T15:41:51.181Z,31.90
2023-04-09T15:44:17.601Z,31.93
2023-04-09T15:46:44.129Z,31.84
2023-04-09T15:49:10.793Z,32.40
2023-04-09T15:51:37.228Z,32.10
2023-04-09T15:54:03.733Z,32.09
2023-04-09T15:56:30.118Z,31.98
2023-04-09T15:58:56.507Z,32.53
2023-04-09T16:01:22.974Z,32.07
2023-04-09T16:03:52.133Z,31.91
2023-04-09T16:06:18.728Z,31.91
2023-04-09T16:08:45.432Z,32.04
2023-04-09T16:11:11.855Z,31.92
2023-04-09T16:13:38.283Z,32.21
2023-04-09T16:16:06.732Z,32.28
2023-04-09T16:18:34.512Z,32.29
2023-04-09T16:21:01.091Z,32.41
2023-04-09T16:23:29.736Z,32.33
2023-04-09T16:25:57.022Z,32.04
2023-04-09T16:28:23.452Z,32.19
2023-04-09T16:30:50.518Z,32.39
2023-04-09T16:33:16.859Z,32.31
2023-04-09T16:35:43.621Z,32.51
2023-04-09T16:38:10.440Z,32.59
2023-04-09T16:40:37.112Z,32.56
2023-04-09T16:43:03.784Z,32.68
2023-04-09T16:45:30.424Z,32.53
2023-04-09T16:47:56.988Z,32.72
2023-04-09T16:50:24.622Z,32.22
2023-04-09T16:52:51.267Z,32.16
2023-04-09T16:55:17.712Z,32.27
2023-04-09T16:57:44.436Z,32.00
2023-04-09T17:00:12.787Z,32.29
2023-04-09T17:02:39.563Z,32.42
2023-04-09T17:05:06.525Z,32.58
2023-04-09T17:07:33.158Z,32.75
2023-04-09T17:09:59.543Z,32.24
2023-04-09T17:12:26.859Z,32.12
2023-04-09T17:14:53.641Z,32.21
2023-04-09T17:17:20.213Z,32.04
2023-04-09T17:19:46.874Z,31.96
2023-04-09T17:22:13.917Z,31.99
2023-04-09T17:24:40.358Z,31.76
2023-04-09T17:27:07.442Z,31.93
2023-04-09T17:29:34.265Z,31.74
2023-04-09T17:32:00.668Z,31.43
2023-04-09T17:34:27.280Z,31.72
2023-04-09T17:36:57.392Z,31.30
2023-04-09T17:39:27.052Z,31.58
2023-04-09T17:41:56.255Z,31.81
2023-04-09T17:44:24.835Z,32.07
2023-04-09T17:46:51.896Z,32.32
2023-04-09T17:49:18.507Z,32.27
2023-04-09T17:51:44.986Z,32.29
2023-04-09T17:54:11.728Z,32.75
2023-04-09T17:56:39.051Z,33.00
2023-04-09T17:59:06.443Z,33.20
2023-04-09T18:01:33.061Z,33.57
2023-04-09T18:04:01.065Z,33.98
2023-04-09T18:06:28.049Z,34.15
2023-04-09T18:08:54.703Z,34.53
2023-04-09T18:11:21.152Z,34.46
2023-04-09T18:13:47.514Z,34.77
2023-04-09T18:16:14.215Z,35.16
2023-04-09T18:18:41.164Z,35.37
2023-04-09T18:21:07.608Z,35.60
2023-04-09T18:23:34.349Z,35.87
2023-04-09T18:26:01.009Z,36.01
2023-04-09T18:28:28.018Z,36.21
2023-04-09T18:30:54.706Z,36.15
2023-04-09T18:33:21.527Z,36.45
2023-04-09T18:35:48.123Z,36.40
2023-04-09T18:38:14.664Z,36.73
2023-04-09T18:40:42.737Z,37.09
2023-04-09T18:43:12.282Z,37.08
2023-04-09T18:45:42.520Z,37.17
2023-04-09T18:48:09.028Z,37.46
2023-04-09T18:50:35.677Z,37.57
2023-04-09T18:53:03.579Z,37.69
2023-04-09T18:55:30.375Z,37.92
2023-04-09T18:57:57.453Z,37.98
2023-04-09T19:00:24.328Z,37.91
2023-04-09T19:02:51.152Z,38.06
2023-04-09T19:05:18.034Z,37.98
2023-04-09T19:07:44.474Z,38.20
2023-04-09T19:10:13.182Z,38.44
2023-04-09T19:12:39.810Z,38.34
2023-04-09T19:15:06.766Z,38.41
2023-04-09T19:17:33.943Z,38.63
2023-04-09T19:20:01.051Z,38.69
2023-04-09T19:22:28.054Z,38.69
2023-04-09T19:24:54.532Z,38.68
2023-04-09T19:27:20.979Z,39.03
2023-04-09T19:29:47.290Z,38.88
2023-04-09T19:32:13.800Z,39.15
2023-04-09T19:34:40.302Z,38.96
2023-04-09T19:37:07.364Z,39.07
2023-04-09T19:39:33.750Z,39.08
2023-04-09T19:42:00.171Z,39.18
2023-04-09T19:44:26.648Z,39.18
2023-04-09T19:46:53.127Z,39.32
2023-04-09T19:49:19.509Z,39.30
2023-04-09T19:51:45.806Z,39.18
2023-04-09T19:54:12.155Z,39.27
2023-04-09T19:56:38.493Z,39.35
2023-04-09T19:59:04.862Z,39.19
2023-04-09T20:01:31.435Z,39.50
2023-04-09T20:03:57.978Z,39.49
2023-04-09T20:06:24.705Z,39.67
2023-04-09T20:08:51.324Z,39.68
2023-04-09T20:11:18.610Z,39.58
2023-04-09T20:13:47.060Z,39.58
2023-04-09T20:16:16.465Z,39.57
2023-04-09T20:18:42.836Z,39.59
2023-04-09T20:21:09.305Z,39.86
2023-04-09T20:23:35.666Z,39.75
2023-04-09T20:26:02.626Z,39.77
2023-04-09T20:28:29.707Z,39.99
2023-04-09T20:30:56.523Z,39.92
2023-04-09T20:33:22.885Z,39.92
2023-04-09T20:35:50.373Z,40.12
2023-04-09T20:38:20.360Z,40.12
2023-04-09T20:40:46.866Z,40.26
2023-04-09T20:43:13.512Z,40.26
2023-04-09T20:45:39.937Z,40.27
2023-04-09T20:48:06.599Z,40.34
2023-04-09T20:50:33.038Z,40.41
2023-04-09T20:52:59.368Z,40.56
2023-04-09T20:55:26.125Z,40.52
2023-04-09T20:57:55.510Z,40.46
2023-04-09T21:00:22.567Z,40.48
2023-04-09T21:02:49.145Z,40.50
2023-04-09T21:05:22.813Z,40.67
2023-04-09T21:07:50.669Z,40.77
2023-04-09T21:10:17.185Z,40.69
2023-04-09T21:12:43.602Z,40.93
2023-04-09T21:15:10.992Z,40.93
2023-04-09T21:17:37.427Z,40.79
2023-04-09T21:20:04.501Z,40.92
2023-04-09T21:22:31.291Z,40.91
2023-04-09T21:24:57.817Z,41.03
2023-04-09T21:27:24.214Z,41.18
2023-04-09T21:29:50.712Z,40.96
2023-04-09T21:32:17.584Z,41.08
2023-04-09T21:34:43.938Z,41.22
2023-04-09T21:37:10.447Z,41.20
2023-04-09T21:39:36.970Z,41.29
2023-04-09T21:42:03.308Z,41.38
2023-04-09T21:44:29.783Z,41.33
2023-04-09T21:46:56.337Z,41.37
2023-04-09T21:49:22.854Z,41.53
2023-04-09T21:51:49.261Z,41.45
2023-04-09T21:54:15.800Z,41.48
2023-04-09T21:56:42.168Z,41.50
2023-04-09T21:59:08.533Z,41.54
2023-04-09T22:01:35.333Z,41.52
2023-04-09T22:04:02.366Z,41.79
2023-04-09T22:06:29.488Z,41.75
2023-04-09T22:08:57.809Z,41.85
2023-04-09T22:11:27.557Z,41.85
2023-04-09T22:13:57.919Z,41.97
2023-04-09T22:16:25.880Z,41.87
2023-04-09T22:18:53.923Z,42.03
2023-04-09T22:21:20.699Z,42.19
2023-04-09T22:23:47.019Z,42.06
2023-04-09T22:26:13.540Z,42.18
2023-04-09T22:28:40.107Z,42.24
2023-04-09T22:31:06.667Z,42.32
2023-04-09T22:33:33.001Z,42.50
2023-04-09T22:35:59.801Z,42.68
2023-04-09T22:38:26.444Z,42.60
2023-04-09T22:40:52.942Z,42.57
2023-04-09T22:43:19.634Z,42.64
2023-04-09T22:45:54.059Z,42.65
2023-04-09T22:48:21.779Z,42.68
2023-04-09T22:50:49.346Z,42.87
2023-04-09T22:53:18.788Z,42.82
2023-04-09T22:55:47.367Z,43.01
2023-04-09T22:58:13.719Z,43.11
2023-04-09T23:00:40.486Z,43.35
2023-04-09T23:03:07.037Z,43.42
2023-04-09T23:05:33.701Z,43.21
2023-04-09T23:08:00.210Z,43.62
2023-04-09T23:10:26.713Z,43.22
2023-04-09T23:12:53.166Z,43.51
2023-04-09T23:15:19.657Z,43.44
2023-04-09T23:17:46.121Z,43.77
2023-04-09T23:20:14.867Z,43.71
2023-04-09T23:22:41.917Z,43.72
2023-04-09T23:25:08.736Z,43.79
2023-04-09T23:27:35.156Z,43.70
2023-04-09T23:30:01.549Z,43.67
2023-04-09T23:32:27.956Z,43.78
2023-04-09T23:34:54.348Z,43.80
2023-04-09T23:37:20.802Z,43.80
2023-04-09T23:39:48.160Z,43.97
2023-04-09T23:42:14.573Z,44.27
2023-04-09T23:44:41.005Z,44.09
2023-04-09T23:47:07.564Z,44.19
2023-04-09T23:49:33.891Z,44.23
2023-04-09T23:52:00.317Z,44.38
2023-04-09T23:54:26.960Z,44.39
2023-04-09T23:56:53.342Z,44.34
2023-04-09T23:59:19.713Z,44.55
